Lanzarote > ESTACION METEOROLÓGICA Teguise II

DATOS ACTUALES Online

Ultima actulizacion 28 minutos

17.1 ºC

Temperatura

80

Humedad (%)

977.9

Presión (mb)

0

Precipitación (mm)

17.5 SW

Viento (Km/h)

DATOS DIARIOS

Temperatura últimas 24 horas (ºC)

Humedad últimas 24 horas (%)

Presión atmosférica últimas 24 horas (mb)

Precipitaciones últimas 23 horas (mm)

Viento últimas 24 horas (Km/h)

Hora Temperatura (°C) ºC Precipitación (mm) mm Presión (mb) mb Humedad (%) % Viento (Km/h) km/h
28 - 23:00 16.8 0 978 84 24.6 W
29 - 00:00 16.8 0 978 82 20.3 W
29 - 01:00 16.9 0 978 82 16.7 W
29 - 02:00 16.8 0 978 80 20.4 W
29 - 03:00 16.7 0 977 79 19.1 W
29 - 04:00 16.7 0 977 82 19.9 SW
29 - 05:00 16.6 0 976 82 27 W
29 - 06:00 16.4 0 977 79 27.6 W
29 - 07:00 16.7 0 977 81 16.9 W
29 - 08:00 17.7 0 978 78 16.7 SW
29 - 09:00 18.2 0 979 77 17.2 W
29 - 10:00 18.3 0 979 77 21.4 W
29 - 11:00 18.9 0 979 70 25.6 W
29 - 12:00 19.1 0 978 72 29.5 W
29 - 13:00 19.3 0 978 68 32 SW
29 - 14:00 19.2 0 978 66 31.4 SW
29 - 15:00 19.8 0 978 64 32 SW
29 - 16:00 19.7 0 977 67 31.3 SW
29 - 17:00 18.9 0 977 72 28.9 SW
29 - 18:00 18.5 0 977 73 33.2 SW
29 - 19:00 17.9 0 977 77 26.3 SW
29 - 20:00 17.8 0 977 79 22.6 SW
29 - 21:00 17.8 0 978 80 26.3 SW
29 - 22:00 17.4 0 977 81 21.2 SW
29 - 23:00 17.1 0 978 80 17.5 SW
Apalmet utiliza cookies propias y de terceros para mejorar la usabilidad y la experiencia web. Política de cookies.